Time;durP1;ratioP1;P1;durP2;ratioP2;P2;SDS_P1;SDS_P2;PMS_P1;PMS_P2;Temp;Humidity;BMP_temperature;BMP_pressure;BME280_temperature;BME280_humidity;BME280_pressure;Samples;Min_cycle;Max_cycle;Signal;HPM_P1;HPM_P2
2022/12/08 00:00:07;;;;;;;8.40;4.82;;;4.80;80.30;;;;;;5052600;28;20025;-69
2022/12/08 00:02:33;;;;;;;10.82;5.63;;;4.90;80.30;;;;;;5052546;28;20025;-70
2022/12/08 00:10:27;;;;;;;10.23;5.53;;;4.90;81.10;;;;;;5052775;28;20546;-70
2022/12/08 00:12:52;;;;;;;9.52;5.93;;;4.90;81.50;;;;;;5053066;28;20057;-68
2022/12/08 00:15:18;;;;;;;7.35;5.00;;;4.80;81.50;;;;;;5052345;28;20128;-70
2022/12/08 00:17:43;;;;;;;7.20;5.43;;;4.80;81.20;;;;;;5052837;28;20024;-70
2022/12/08 00:20:09;;;;;;;10.18;5.20;;;4.80;81.10;;;;;;5052232;28;20425;-70
2022/12/08 00:22:35;;;;;;;7.82;5.65;;;4.80;81.40;;;;;;5052615;28;20453;-69
2022/12/08 00:25:01;;;;;;;7.55;5.38;;;4.80;81.80;;;;;;5052425;28;20021;-70
2022/12/08 00:27:26;;;;;;;9.18;5.90;;;4.90;82.00;;;;;;5050824;28;20055;-68
2022/12/08 00:29:52;;;;;;;8.15;5.63;;;4.90;81.90;;;;;;5052596;28;20462;-69
2022/12/08 00:32:17;;;;;;;9.45;5.68;;;4.90;81.70;;;;;;5052109;28;20032;-69
2022/12/08 00:34:43;;;;;;;7.40;5.63;;;4.80;81.80;;;;;;5052523;28;20028;-69
2022/12/08 00:37:09;;;;;;;9.55;5.70;;;4.80;81.90;;;;;;5051857;28;20053;-69
2022/12/08 00:39:34;;;;;;;10.35;5.22;;;4.80;82.30;;;;;;5052411;28;20504;-69
2022/12/08 00:42:12;;;;;;;7.25;5.15;;;4.80;82.00;;;;;;5052068;28;20025;-69
2022/12/08 00:44:39;;;;;;;8.10;5.05;;;4.80;82.20;;;;;;5052563;28;20355;-70
2022/12/08 00:47:05;;;;;;;6.78;4.85;;;4.80;82.10;;;;;;5051726;28;20075;-70
2022/12/08 00:49:30;;;;;;;6.40;4.47;;;4.80;81.80;;;;;;5052368;28;20036;-70
2022/12/08 00:51:56;;;;;;;6.15;4.47;;;4.90;82.10;;;;;;5052692;28;20115;-70
2022/12/08 00:54:23;;;;;;;8.25;5.15;;;4.90;82.10;;;;;;5051959;28;20025;-70
2022/12/08 00:56:48;;;;;;;6.97;4.75;;;4.90;81.80;;;;;;5052790;28;20021;-69
2022/12/08 00:59:14;;;;;;;9.45;5.03;;;4.90;81.50;;;;;;5052631;28;20025;-69
2022/12/08 01:01:42;;;;;;;7.57;5.25;;;4.90;81.00;;;;;;5052671;28;20444;-70
2022/12/08 01:04:11;;;;;;;6.50;4.63;;;5.00;81.10;;;;;;5052840;28;20021;-69
2022/12/08 01:06:38;;;;;;;6.65;4.53;;;5.00;81.00;;;;;;5052785;28;20025;-69
2022/12/08 01:09:05;;;;;;;7.80;4.80;;;5.00;80.80;;;;;;5052448;28;20044;-69
2022/12/08 01:11:31;;;;;;;6.95;4.75;;;5.00;81.00;;;;;;5051605;28;20481;-69
2022/12/08 01:13:56;;;;;;;9.10;5.18;;;4.90;81.20;;;;;;5052236;28;20036;-69
2022/12/08 01:16:25;;;;;;;8.75;5.40;;;4.90;81.40;;;;;;5051851;28;20458;-69
2022/12/08 01:18:51;;;;;;;6.78;4.63;;;4.90;81.80;;;;;;5052169;28;20395;-69
2022/12/08 01:21:17;;;;;;;10.07;4.88;;;4.80;82.00;;;;;;5051494;28;20098;-69
2022/12/08 01:23:43;;;;;;;8.45;4.95;;;4.80;82.10;;;;;;5052354;28;20116;-69
2022/12/08 01:26:11;;;;;;;10.00;4.70;;;4.80;82.30;;;;;;5051722;28;20068;-70
2022/12/08 01:28:37;;;;;;;9.25;4.60;;;4.80;82.30;;;;;;5051978;28;20029;-70
2022/12/08 01:31:03;;;;;;;6.43;4.53;;;4.70;82.60;;;;;;5052040;28;20035;-69
2022/12/08 01:33:29;;;;;;;7.90;4.60;;;4.70;82.60;;;;;;5052016;28;20033;-70
2022/12/08 01:35:55;;;;;;;7.85;5.07;;;4.70;82.70;;;;;;5052173;28;20424;-70
2022/12/08 01:38:21;;;;;;;7.20;4.78;;;4.60;82.70;;;;;;5051639;28;20116;-70
2022/12/08 01:40:47;;;;;;;7.32;4.30;;;4.60;82.90;;;;;;5052352;28;20032;-70
2022/12/08 01:43:18;;;;;;;7.32;5.10;;;4.60;82.60;;;;;;5051481;28;20392;-70
2022/12/08 01:45:43;;;;;;;8.82;4.65;;;4.60;82.90;;;;;;5052038;28;20021;-70
2022/12/08 01:48:25;;;;;;;6.97;4.45;;;4.60;83.10;;;;;;5051428;28;20526;-70
2022/12/08 01:50:54;;;;;;;6.63;4.40;;;4.60;83.10;;;;;;5050591;28;20515;-70
2022/12/08 01:53:27;;;;;;;6.60;4.35;;;4.60;82.90;;;;;;5051738;28;20481;-68
2022/12/08 01:55:58;;;;;;;7.90;4.75;;;4.60;83.10;;;;;;5054811;28;20068;-69
2022/12/08 01:58:34;;;;;;;6.82;4.88;;;4.50;82.70;;;;;;5055035;28;20029;-70
2022/12/08 02:01:00;;;;;;;5.85;4.00;;;4.50;83.40;;;;;;5055581;28;20033;-69
2022/12/08 02:03:33;;;;;;;6.85;4.72;;;4.50;83.80;;;;;;5054809;28;20025;-69
2022/12/08 02:05:58;;;;;;;7.47;4.30;;;4.50;84.20;;;;;;5055227;28;20028;-69
2022/12/08 02:08:25;;;;;;;7.28;4.60;;;4.50;84.20;;;;;;5054864;28;20040;-69
2022/12/08 02:10:51;;;;;;;6.95;4.93;;;4.60;84.10;;;;;;5055118;28;20029;-69
2022/12/08 02:13:19;;;;;;;5.90;3.58;;;4.50;84.10;;;;;;5054892;28;20017;-70
2022/12/08 02:16:16;;;;;;;9.68;4.50;;;4.50;84.30;;;;;;5055459;28;20100;-70
2022/12/08 02:18:56;;;;;;;6.95;4.75;;;4.50;84.40;;;;;;5054997;28;20032;-69
2022/12/08 02:21:30;;;;;;;8.87;4.87;;;4.50;84.30;;;;;;5054755;28;20470;-69
2022/12/08 02:24:24;;;;;;;9.50;5.00;;;4.50;84.40;;;;;;5054971;28;20121;-69
2022/12/08 02:27:28;;;;;;;8.38;4.75;;;4.50;83.80;;;;;;5055185;28;20132;-69
2022/12/08 02:30:11;;;;;;;6.07;4.35;;;4.50;83.00;;;;;;5053780;28;20549;-70
2022/12/08 02:32:40;;;;;;;7.75;4.30;;;4.50;82.80;;;;;;5054456;28;20025;-70
2022/12/08 02:35:19;;;;;;;6.75;4.00;;;4.60;82.60;;;;;;5053990;28;20024;-70
2022/12/08 02:38:07;;;;;;;7.10;4.05;;;4.60;82.80;;;;;;5054794;28;20131;-69
2022/12/08 02:40:56;;;;;;;8.10;4.20;;;4.60;82.20;;;;;;5054370;28;20025;-69
2022/12/08 02:43:31;;;;;;;5.07;4.30;;;4.60;82.30;;;;;;5054343;28;20053;-69
2022/12/08 02:46:03;;;;;;;8.20;5.28;;;4.60;82.50;;;;;;5054710;28;20028;-69
2022/12/08 02:48:31;;;;;;;8.00;4.80;;;4.60;82.70;;;;;;5054057;28;20080;-69
2022/12/08 02:50:57;;;;;;;8.27;3.92;;;4.70;83.50;;;;;;5054547;28;20025;-69
2022/12/08 02:53:22;;;;;;;6.75;4.18;;;4.70;83.80;;;;;;5053990;28;20108;-69
2022/12/08 02:56:29;;;;;;;5.57;3.92;;;4.70;83.80;;;;;;5054381;28;20029;-69
2022/12/08 02:59:01;;;;;;;5.97;3.88;;;4.70;83.90;;;;;;5054308;28;20596;-69
2022/12/08 03:01:56;;;;;;;7.00;4.50;;;4.70;83.90;;;;;;5054163;28;20025;-69
2022/12/08 03:04:39;;;;;;;6.68;4.03;;;4.70;83.80;;;;;;5045273;28;20059;-69
2022/12/08 03:07:30;;;;;;;6.65;4.03;;;4.70;83.00;;;;;;5053666;28;20147;-69
2022/12/08 03:10:09;;;;;;;6.55;4.13;;;4.60;83.60;;;;;;5052948;28;20462;-69
2022/12/08 03:13:17;;;;;;;5.35;3.65;;;4.60;84.20;;;;;;5053776;28;20032;-69
2022/12/08 03:15:47;;;;;;;5.70;4.00;;;4.60;84.40;;;;;;5032194;28;20124;-70
2022/12/08 03:18:16;;;;;;;5.65;3.83;;;4.60;84.70;;;;;;5051170;28;20044;-69
2022/12/08 03:20:43;;;;;;;6.40;3.97;;;4.60;85.20;;;;;;5054277;28;20029;-70
2022/12/08 03:23:13;;;;;;;6.93;4.55;;;4.60;85.70;;;;;;5053897;28;20046;-70
2022/12/08 03:26:10;;;;;;;6.25;4.53;;;4.60;86.00;;;;;;5053759;28;20480;-68
2022/12/08 03:28:37;;;;;;;7.22;4.70;;;4.60;86.30;;;;;;5033540;28;20049;-70
2022/12/08 03:31:08;;;;;;;8.13;4.65;;;4.60;87.00;;;;;;5053964;28;20021;-69
2022/12/08 03:33:42;;;;;;;6.80;4.32;;;4.60;87.20;;;;;;5053426;28;20025;-69
2022/12/08 03:36:10;;;;;;;9.50;4.95;;;4.60;86.90;;;;;;5053930;28;20071;-69
2022/12/08 03:38:38;;;;;;;11.13;4.47;;;4.50;87.00;;;;;;5053248;28;20382;-69
2022/12/08 03:41:19;;;;;;;8.75;4.72;;;4.50;86.70;;;;;;5053715;28;20025;-69
2022/12/08 03:43:50;;;;;;;7.15;4.72;;;4.50;87.00;;;;;;5053729;28;20021;-69
2022/12/08 03:46:17;;;;;;;9.20;5.43;;;4.50;87.80;;;;;;5051978;28;20056;-70
2022/12/08 03:48:43;;;;;;;9.18;4.82;;;4.50;87.90;;;;;;5052151;28;20457;-70
2022/12/08 03:51:09;;;;;;;8.43;5.50;;;4.50;88.50;;;;;;5053314;28;20040;-69
2022/12/08 03:53:34;;;;;;;8.55;4.90;;;4.40;88.90;;;;;;5052846;28;20025;-68
2022/12/08 03:56:14;;;;;;;7.72;5.20;;;4.40;89.50;;;;;;5053462;28;20053;-69
2022/12/08 03:58:39;;;;;;;7.82;5.15;;;4.40;90.00;;;;;;5052615;28;20396;-69
2022/12/08 04:01:05;;;;;;;9.30;5.20;;;4.40;89.90;;;;;;5053404;28;20100;-68
2022/12/08 04:03:30;;;;;;;8.98;5.57;;;4.40;90.00;;;;;;5053409;28;20040;-68
2022/12/08 04:05:56;;;;;;;9.88;5.75;;;4.40;90.00;;;;;;5053889;28;20107;-69
2022/12/08 04:08:22;;;;;;;8.90;5.45;;;4.40;90.00;;;;;;5051518;28;20474;-69
2022/12/08 04:10:47;;;;;;;7.90;5.15;;;4.40;90.40;;;;;;5052016;28;20025;-69
2022/12/08 04:13:13;;;;;;;9.07;5.63;;;4.40;90.40;;;;;;5052960;28;20024;-68
2022/12/08 04:15:39;;;;;;;9.45;5.55;;;4.40;90.40;;;;;;5052017;28;20025;-69
2022/12/08 04:18:04;;;;;;;9.93;5.28;;;4.40;90.40;;;;;;5050764;28;20033;-69
2022/12/08 04:20:30;;;;;;;8.68;5.40;;;4.40;90.40;;;;;;5052297;28;20553;-69
2022/12/08 04:22:55;;;;;;;10.35;5.45;;;4.40;90.10;;;;;;5052869;28;20057;-68
2022/12/08 04:25:21;;;;;;;8.10;5.57;;;4.40;90.00;;;;;;5052299;28;20104;-69
2022/12/08 04:27:46;;;;;;;10.20;5.72;;;4.30;90.00;;;;;;5052712;28;20039;-68
2022/12/08 04:30:12;;;;;;;8.07;5.22;;;4.30;90.20;;;;;;5053056;28;20033;-68
2022/12/08 04:32:38;;;;;;;8.75;5.35;;;4.30;90.50;;;;;;5052648;28;20029;-69
2022/12/08 04:35:04;;;;;;;8.73;5.55;;;4.30;90.80;;;;;;5052705;28;20036;-69
2022/12/08 04:37:29;;;;;;;8.32;5.18;;;4.30;91.00;;;;;;5052186;28;20048;-68
2022/12/08 04:39:55;;;;;;;7.53;4.82;;;4.30;90.90;;;;;;5052947;28;20108;-68
2022/12/08 04:42:20;;;;;;;9.27;5.25;;;4.30;90.70;;;;;;5052532;28;20488;-69
2022/12/08 04:44:46;;;;;;;8.00;4.65;;;4.30;90.40;;;;;;5051967;28;20027;-68
2022/12/08 04:47:12;;;;;;;7.25;4.65;;;4.30;90.20;;;;;;5052325;28;20029;-69
2022/12/08 04:49:37;;;;;;;8.77;4.72;;;4.30;89.90;;;;;;5051981;28;20520;-69
2022/12/08 04:52:03;;;;;;;6.90;4.60;;;4.30;89.70;;;;;;5052710;28;20092;-68
2022/12/08 04:54:29;;;;;;;7.05;4.63;;;4.30;90.00;;;;;;5052353;28;20029;-70
2022/12/08 04:56:54;;;;;;;6.53;4.28;;;4.30;90.10;;;;;;5052217;28;20032;-69
2022/12/08 04:59:20;;;;;;;7.95;5.25;;;4.30;90.20;;;;;;5052168;28;20485;-69
2022/12/08 05:01:45;;;;;;;7.15;4.63;;;4.30;90.30;;;;;;5052708;28;20025;-69
2022/12/08 05:04:11;;;;;;;8.55;4.65;;;4.30;90.20;;;;;;5052585;28;20025;-69
2022/12/08 05:06:36;;;;;;;8.27;5.15;;;4.30;90.10;;;;;;5051656;28;20033;-69
2022/12/08 05:09:02;;;;;;;9.70;5.85;;;4.20;89.90;;;;;;5052237;28;20028;-69
2022/12/08 05:11:28;;;;;;;8.32;5.50;;;4.20;90.20;;;;;;5051898;28;20036;-68
2022/12/08 05:13:53;;;;;;;10.25;6.05;;;4.20;91.00;;;;;;5051983;28;20032;-70
2022/12/08 05:16:19;;;;;;;10.43;5.95;;;4.10;91.40;;;;;;5053138;28;20021;-68
2022/12/08 05:18:45;;;;;;;9.55;5.95;;;4.10;91.70;;;;;;5052777;28;20035;-69
2022/12/08 05:21:11;;;;;;;11.45;6.32;;;4.10;91.80;;;;;;5052403;28;20028;-70
2022/12/08 05:23:36;;;;;;;9.63;6.18;;;4.00;91.60;;;;;;5051735;28;20024;-70
2022/12/08 05:26:02;;;;;;;8.65;5.82;;;4.00;91.80;;;;;;5052312;28;20025;-69
2022/12/08 05:28:28;;;;;;;9.77;6.05;;;4.00;92.20;;;;;;5052092;28;20378;-69
2022/12/08 05:30:54;;;;;;;11.18;5.60;;;4.00;92.30;;;;;;5054839;28;20371;-69
2022/12/08 05:33:19;;;;;;;10.77;6.10;;;4.00;92.40;;;;;;5056009;28;20025;-68
2022/12/08 05:35:45;;;;;;;10.90;6.22;;;4.00;92.40;;;;;;5055062;28;20056;-70
2022/12/08 05:38:11;;;;;;;12.35;7.10;;;4.00;92.40;;;;;;5056080;28;20029;-70
2022/12/08 05:40:38;;;;;;;12.50;6.35;;;4.00;92.40;;;;;;5055377;28;20063;-70
2022/12/08 05:43:04;;;;;;;8.93;5.70;;;4.00;92.60;;;;;;5055571;28;20032;-68
2022/12/08 05:45:29;;;;;;;11.75;6.50;;;3.90;92.70;;;;;;5055279;28;20025;-69
2022/12/08 05:47:55;;;;;;;8.10;5.47;;;3.90;92.90;;;;;;5055338;28;20033;-69
2022/12/08 05:50:21;;;;;;;9.07;5.90;;;3.90;93.00;;;;;;5055587;28;20033;-69
2022/12/08 05:52:46;;;;;;;11.70;6.30;;;3.90;93.10;;;;;;5054964;28;20036;-69
2022/12/08 05:55:12;;;;;;;10.05;6.47;;;3.90;93.10;;;;;;5055424;28;20496;-70
2022/12/08 05:57:38;;;;;;;12.80;6.28;;;3.90;92.90;;;;;;5055239;28;20075;-69
2022/12/08 06:00:04;;;;;;;9.18;5.95;;;3.90;93.00;;;;;;5055808;28;20032;-69
2022/12/08 06:02:30;;;;;;;8.68;5.88;;;3.90;93.00;;;;;;5054225;28;20132;-69
2022/12/08 06:04:55;;;;;;;8.40;5.90;;;4.00;93.00;;;;;;5055486;28;20087;-70
2022/12/08 06:07:21;;;;;;;10.27;6.40;;;3.90;93.00;;;;;;5055121;28;20385;-69
2022/12/08 06:09:46;;;;;;;10.32;6.72;;;4.00;93.20;;;;;;5054935;28;20113;-68
2022/12/08 06:12:12;;;;;;;10.27;6.85;;;3.90;93.20;;;;;;5054884;28;20116;-69
2022/12/08 06:14:38;;;;;;;10.20;6.90;;;3.90;93.50;;;;;;5054863;28;20450;-69
2022/12/08 06:17:04;;;;;;;11.00;7.20;;;3.90;93.70;;;;;;5055324;28;20021;-70
2022/12/08 06:19:30;;;;;;;15.77;7.35;;;3.90;94.10;;;;;;5054553;28;20025;-70
2022/12/08 06:21:55;;;;;;;11.50;7.47;;;3.90;94.50;;;;;;5055100;28;20089;-71
2022/12/08 06:24:21;;;;;;;12.70;7.28;;;3.90;94.80;;;;;;5055065;28;20021;-69
2022/12/08 06:26:47;;;;;;;11.90;7.22;;;3.90;95.00;;;;;;5054348;28;20029;-70
2022/12/08 06:29:12;;;;;;;11.55;7.28;;;4.00;95.00;;;;;;5054926;28;20112;-70
2022/12/08 06:31:39;;;;;;;11.77;7.70;;;4.00;95.10;;;;;;5054244;28;20035;-70
2022/12/08 06:34:05;;;;;;;11.65;7.80;;;4.00;95.30;;;;;;5054579;28;20476;-70
2022/12/08 06:36:30;;;;;;;13.15;7.60;;;4.00;95.40;;;;;;5054260;28;20379;-68
2022/12/08 06:38:56;;;;;;;9.75;7.00;;;4.00;95.70;;;;;;5054827;28;20025;-70
2022/12/08 06:41:24;;;;;;;13.00;7.68;;;4.00;95.70;;;;;;5052915;28;20492;-70
2022/12/08 06:43:50;;;;;;;12.30;7.75;;;4.00;96.10;;;;;;5054162;28;20029;-69
2022/12/08 06:46:18;;;;;;;11.80;7.80;;;4.00;96.20;;;;;;5054658;28;20028;-70
2022/12/08 06:48:44;;;;;;;12.52;7.75;;;4.00;96.40;;;;;;5054024;28;20100;-70
2022/12/08 06:51:13;;;;;;;11.02;8.20;;;4.00;96.80;;;;;;5053449;28;20039;-69
2022/12/08 06:53:39;;;;;;;11.65;7.43;;;4.00;96.90;;;;;;5054173;28;20074;-70
2022/12/08 06:56:06;;;;;;;17.20;8.98;;;4.00;97.00;;;;;;5054150;28;20056;-68
2022/12/08 06:58:32;;;;;;;13.00;8.23;;;4.00;97.60;;;;;;5054012;28;20090;-70
2022/12/08 07:01:07;;;;;;;13.27;8.57;;;4.00;97.90;;;;;;5054453;28;20025;-71
2022/12/08 07:03:33;;;;;;;13.40;8.77;;;4.00;98.30;;;;;;5053859;28;20113;-70
2022/12/08 07:05:59;;;;;;;12.65;8.45;;;4.00;98.90;;;;;;5054147;28;20038;-70
2022/12/08 07:08:24;;;;;;;14.27;8.88;;;4.00;99.50;;;;;;5054176;28;20029;-69
2022/12/08 07:10:50;;;;;;;13.65;8.52;;;4.00;99.90;;;;;;5053689;28;20177;-69
2022/12/08 07:13:15;;;;;;;15.13;8.77;;;4.00;99.90;;;;;;5053882;28;20025;-69
2022/12/08 07:15:41;;;;;;;13.60;8.70;;;4.00;99.90;;;;;;5053812;28;20028;-69
2022/12/08 07:18:07;;;;;;;18.45;8.95;;;4.00;99.90;;;;;;5054076;28;20033;-69
2022/12/08 07:20:32;;;;;;;13.15;8.90;;;4.10;99.90;;;;;;5053628;28;20025;-69
2022/12/08 07:22:58;;;;;;;14.32;8.80;;;4.10;99.90;;;;;;5053864;28;20036;-69
2022/12/08 07:25:24;;;;;;;12.00;8.70;;;4.10;99.90;;;;;;5053660;28;20378;-69
2022/12/08 07:27:51;;;;;;;13.93;9.00;;;4.10;99.90;;;;;;5053217;28;20393;-70
2022/12/08 07:30:17;;;;;;;12.10;7.93;;;4.10;99.90;;;;;;5053297;28;20421;-69
2022/12/08 07:32:42;;;;;;;12.70;8.68;;;4.20;99.90;;;;;;5053033;28;20067;-69
2022/12/08 07:35:09;;;;;;;12.85;8.20;;;4.20;99.90;;;;;;5053426;28;20037;-69
2022/12/08 07:37:36;;;;;;;11.23;7.78;;;4.20;99.90;;;;;;5053135;28;20049;-71
2022/12/08 07:40:03;;;;;;;17.23;8.43;;;4.30;99.90;;;;;;5053518;28;20037;-69
2022/12/08 07:42:29;;;;;;;10.52;7.60;;;4.30;99.90;;;;;;5053354;28;20104;-69
2022/12/08 07:44:55;;;;;;;13.60;7.80;;;4.30;99.90;;;;;;5052609;28;20211;-70
2022/12/08 07:47:20;;;;;;;11.52;7.47;;;4.40;99.90;;;;;;5053224;28;20064;-69
2022/12/08 07:49:46;;;;;;;11.00;8.00;;;4.40;99.90;;;;;;5052888;28;20381;-70
2022/12/08 07:52:11;;;;;;;10.18;7.70;;;4.40;99.90;;;;;;5053408;28;20021;-69
2022/12/08 07:54:37;;;;;;;11.10;8.18;;;4.50;99.90;;;;;;5052766;28;20021;-69
2022/12/08 07:57:04;;;;;;;13.20;8.20;;;4.50;99.90;;;;;;5052996;28;20025;-69
2022/12/08 07:59:30;;;;;;;10.13;7.22;;;4.60;99.90;;;;;;5053006;28;20045;-70
2022/12/08 08:01:56;;;;;;;11.13;7.63;;;4.60;99.90;;;;;;5052711;28;20025;-70
2022/12/08 08:04:22;;;;;;;10.88;7.40;;;4.70;99.90;;;;;;5052786;28;20032;-70
2022/12/08 08:06:47;;;;;;;9.77;7.18;;;4.70;99.90;;;;;;5052105;28;20177;-69
2022/12/08 08:09:13;;;;;;;10.98;7.72;;;4.70;99.90;;;;;;5052945;28;20461;-70
2022/12/08 08:11:39;;;;;;;10.30;6.93;;;4.70;99.90;;;;;;5052700;28;20120;-69
2022/12/08 08:14:05;;;;;;;11.10;7.28;;;4.80;99.90;;;;;;5052789;28;20029;-69
2022/12/08 08:16:30;;;;;;;10.20;7.43;;;4.80;99.90;;;;;;5052505;28;20029;-70
2022/12/08 08:18:56;;;;;;;11.02;6.82;;;4.80;99.90;;;;;;5052446;28;20032;-70
2022/12/08 08:21:22;;;;;;;12.15;7.40;;;4.90;99.90;;;;;;5052842;28;20024;-70
2022/12/08 08:23:47;;;;;;;12.43;7.93;;;4.90;99.90;;;;;;5052301;28;20021;-69
2022/12/08 08:26:13;;;;;;;11.43;7.30;;;4.90;99.90;;;;;;5052779;28;20458;-69
2022/12/08 08:28:39;;;;;;;12.07;8.70;;;4.90;99.90;;;;;;5052207;28;20059;-69
2022/12/08 08:31:05;;;;;;;11.07;7.10;;;5.00;99.90;;;;;;5052824;28;20517;-70
2022/12/08 08:33:31;;;;;;;9.32;6.68;;;5.00;99.90;;;;;;5052556;28;20032;-69
2022/12/08 08:35:56;;;;;;;13.75;8.65;;;5.00;99.90;;;;;;5051760;28;20413;-71
2022/12/08 08:38:22;;;;;;;11.02;7.72;;;5.10;99.90;;;;;;5051741;28;20025;-70
2022/12/08 08:40:48;;;;;;;9.63;6.75;;;5.10;99.90;;;;;;5052277;28;20029;-71
2022/12/08 08:43:27;;;;;;;13.40;7.32;;;5.20;99.90;;;;;;5052471;28;20398;-70
2022/12/08 08:46:01;;;;;;;12.13;7.63;;;5.20;99.90;;;;;;5051674;28;20036;-70
2022/12/08 08:48:28;;;;;;;13.00;7.47;;;5.30;99.90;;;;;;5051927;28;20362;-70
2022/12/08 08:50:55;;;;;;;10.75;7.70;;;5.30;99.90;;;;;;5051906;28;20092;-70
2022/12/08 08:53:22;;;;;;;11.27;7.82;;;5.30;99.90;;;;;;5052101;28;20036;-70
2022/12/08 08:55:49;;;;;;;13.70;8.10;;;5.30;99.90;;;;;;5051906;28;20029;-69
2022/12/08 08:58:15;;;;;;;12.80;9.20;;;5.30;99.90;;;;;;5052064;28;20029;-69
2022/12/08 09:00:40;;;;;;;15.13;9.25;;;5.40;99.90;;;;;;5051609;28;20025;-70
2022/12/08 09:03:06;;;;;;;12.57;8.93;;;5.40;99.90;;;;;;5051803;28;20075;-69
2022/12/08 09:05:31;;;;;;;11.00;8.27;;;5.40;99.90;;;;;;5052123;28;20116;-70
2022/12/08 09:07:57;;;;;;;17.80;10.00;;;5.40;99.90;;;;;;5051709;28;20029;-70
2022/12/08 09:10:23;;;;;;;15.48;10.07;;;5.40;99.90;;;;;;5052134;28;20033;-71
2022/12/08 09:12:48;;;;;;;15.18;9.48;;;5.40;99.90;;;;;;5051965;28;20040;-70
2022/12/08 09:15:14;;;;;;;13.50;9.38;;;5.40;99.90;;;;;;5052475;28;20021;-70
2022/12/08 09:17:40;;;;;;;12.30;8.93;;;5.40;99.90;;;;;;5051434;28;20033;-70
2022/12/08 09:20:06;;;;;;;15.45;10.15;;;5.40;99.90;;;;;;5051892;28;20029;-70
2022/12/08 09:22:32;;;;;;;16.05;9.02;;;5.40;99.90;;;;;;5052091;28;20127;-69
2022/12/08 09:24:57;;;;;;;11.98;8.70;;;5.40;99.90;;;;;;5051544;28;20064;-69
2022/12/08 09:27:23;;;;;;;13.68;8.02;;;5.40;99.90;;;;;;5051556;28;20029;-69
2022/12/08 09:29:49;;;;;;;11.85;8.68;;;5.40;99.90;;;;;;5051235;28;20025;-70
2022/12/08 09:32:14;;;;;;;11.98;8.45;;;5.40;99.90;;;;;;5051724;28;20076;-69
2022/12/08 09:34:40;;;;;;;10.68;6.75;;;5.50;99.90;;;;;;5051950;28;20025;-72
2022/12/08 09:37:06;;;;;;;9.45;6.95;;;5.50;99.90;;;;;;5051705;28;20413;-69
2022/12/08 09:39:31;;;;;;;11.07;6.90;;;5.50;99.90;;;;;;5051733;28;20524;-70
2022/12/08 09:42:03;;;;;;;10.30;7.05;;;5.50;99.90;;;;;;5051410;28;20045;-69
2022/12/08 09:44:56;;;;;;;10.45;7.18;;;5.50;99.90;;;;;;5051825;28;20107;-69
2022/12/08 09:47:21;;;;;;;8.85;6.45;;;5.50;99.90;;;;;;5051690;28;20051;-69
2022/12/08 09:49:59;;;;;;;9.80;7.10;;;5.50;99.90;;;;;;5051203;28;20025;-69
2022/12/08 09:52:31;;;;;;;10.70;7.03;;;5.60;99.90;;;;;;5051348;28;20103;-69
2022/12/08 09:55:01;;;;;;;8.75;5.95;;;5.60;99.90;;;;;;5051181;28;20071;-70
2022/12/08 09:57:29;;;;;;;11.40;6.80;;;5.60;99.90;;;;;;5052009;28;20078;-69
2022/12/08 10:00:00;;;;;;;9.35;6.70;;;5.60;99.90;;;;;;5051036;28;20116;-70
2022/12/08 10:02:28;;;;;;;9.50;6.07;;;5.70;99.90;;;;;;5051627;28;20021;-69
2022/12/08 10:04:56;;;;;;;9.35;7.05;;;5.70;99.90;;;;;;5051265;28;20029;-70
2022/12/08 10:07:29;;;;;;;11.23;7.40;;;5.70;99.90;;;;;;5051765;28;20074;-70
2022/12/08 10:10:16;;;;;;;12.40;8.13;;;5.80;99.90;;;;;;5051091;28;20373;-69
2022/12/08 10:12:56;;;;;;;9.48;7.20;;;5.80;99.90;;;;;;5051358;28;20493;-69
2022/12/08 10:15:47;;;;;;;11.55;7.20;;;5.80;99.90;;;;;;5051891;28;20061;-70
2022/12/08 10:18:13;;;;;;;;;;;5.80;99.90;;;;;;5055572;28;20033;-70
2022/12/08 10:20:44;;;;;;;11.10;7.30;;;5.90;99.90;;;;;;5055019;28;20191;-69
2022/12/08 10:23:18;;;;;;;12.27;8.63;;;5.90;99.90;;;;;;5055032;28;20029;-70
2022/12/08 10:25:45;;;;;;;14.15;8.40;;;5.90;99.90;;;;;;5054428;28;20466;-70
2022/12/08 10:28:11;;;;;;;12.75;9.43;;;5.90;99.90;;;;;;5055297;28;20044;-69
2022/12/08 10:30:37;;;;;;;16.30;10.32;;;5.90;99.90;;;;;;5054896;28;20029;-68
2022/12/08 10:33:03;;;;;;;12.75;9.30;;;5.90;99.90;;;;;;5054052;28;20025;-70
2022/12/08 10:35:42;;;;;;;13.30;10.23;;;6.10;99.90;;;;;;5054396;28;20057;-69
2022/12/08 10:38:41;;;;;;;14.15;10.10;;;6.10;99.90;;;;;;5054229;28;20029;-69
2022/12/08 10:41:12;;;;;;;16.20;10.18;;;6.30;99.90;;;;;;5053046;28;20048;-70
2022/12/08 10:44:04;;;;;;;12.27;9.45;;;6.30;99.90;;;;;;5054673;28;20017;-69
2022/12/08 10:46:31;;;;;;;14.15;9.57;;;6.40;99.90;;;;;;5050789;28;20505;-69
2022/12/08 10:49:05;;;;;;;13.55;8.82;;;6.40;99.90;;;;;;5054059;28;20086;-69
2022/12/08 10:51:33;;;;;;;12.68;8.85;;;6.40;99.90;;;;;;5054323;28;20435;-70
2022/12/08 10:53:59;;;;;;;14.02;9.35;;;6.40;99.90;;;;;;5054111;28;20158;-70
2022/12/08 10:56:28;;;;;;;12.75;9.40;;;6.40;99.90;;;;;;5054317;28;20025;-70
2022/12/08 10:59:18;;;;;;;13.45;9.70;;;6.50;99.90;;;;;;5053783;28;20120;-70
2022/12/08 11:01:51;;;;;;;13.45;9.70;;;6.50;99.90;;;;;;5053981;28;20025;-70
2022/12/08 11:04:22;;;;;;;17.95;10.00;;;6.40;99.90;;;;;;5054240;28;20450;-70
2022/12/08 11:06:50;;;;;;;14.23;10.02;;;6.40;99.90;;;;;;5053888;28;20208;-71
2022/12/08 11:09:18;;;;;;;15.43;10.32;;;6.40;99.90;;;;;;5054155;28;20124;-69
2022/12/08 11:11:50;;;;;;;16.17;10.65;;;6.30;99.90;;;;;;5053845;28;20082;-69
2022/12/08 11:14:30;;;;;;;13.35;10.40;;;6.40;99.90;;;;;;5054211;28;20032;-69
2022/12/08 11:17:23;;;;;;;14.95;10.85;;;6.30;99.90;;;;;;5053681;28;20494;-69
2022/12/08 11:20:18;;;;;;;16.65;11.02;;;6.30;99.90;;;;;;5053687;28;20127;-69
2022/12/08 11:22:50;;;;;;;16.60;11.90;;;6.30;99.90;;;;;;5053748;28;20043;-69
2022/12/08 11:25:26;;;;;;;16.65;10.85;;;6.30;99.90;;;;;;5052596;28;20437;-69
2022/12/08 11:27:57;;;;;;;18.75;11.60;;;6.30;99.90;;;;;;5052789;28;20068;-70
2022/12/08 11:30:34;;;;;;;23.63;11.88;;;6.30;99.90;;;;;;5053812;28;20025;-69
2022/12/08 11:33:27;;;;;;;20.95;11.52;;;6.30;99.90;;;;;;5053157;28;20516;-70
2022/12/08 11:35:58;;;;;;;14.48;10.55;;;6.20;99.90;;;;;;5051500;28;20494;-70
2022/12/08 11:38:26;;;;;;;18.48;11.32;;;6.20;99.90;;;;;;5053511;28;20029;-70
2022/12/08 11:41:07;;;;;;;18.30;12.57;;;6.10;99.90;;;;;;5052921;28;20032;-70
2022/12/08 11:43:32;;;;;;;19.40;12.73;;;6.10;99.90;;;;;;5053212;28;20369;-70
2022/12/08 11:46:20;;;;;;;18.58;11.77;;;6.10;99.90;;;;;;5052553;28;20025;-70
2022/12/08 11:48:57;;;;;;;24.40;14.00;;;6.20;99.90;;;;;;5053462;28;20036;-70
2022/12/08 11:51:28;;;;;;;19.77;13.82;;;6.20;99.90;;;;;;5053746;28;20025;-70
2022/12/08 11:54:10;;;;;;;20.35;14.15;;;6.10;99.90;;;;;;5052713;28;20096;-71
2022/12/08 11:56:41;;;;;;;21.27;13.50;;;6.10;99.90;;;;;;5052780;28;20118;-70
2022/12/08 11:59:12;;;;;;;20.88;12.68;;;6.10;99.90;;;;;;5052846;28;20028;-70
2022/12/08 12:01:38;;;;;;;18.90;12.55;;;6.10;99.90;;;;;;5053425;28;20021;-70
2022/12/08 12:04:15;;;;;;;20.90;13.75;;;6.20;99.90;;;;;;5051273;28;20029;-71
2022/12/08 12:07:08;;;;;;;18.98;13.60;;;6.30;99.90;;;;;;5052830;28;20029;-70
2022/12/08 12:09:43;;;;;;;20.15;13.85;;;6.50;99.90;;;;;;5052660;28;20501;-70
2022/12/08 12:12:27;;;;;;;20.50;13.07;;;6.60;99.90;;;;;;5052692;28;20155;-69
2022/12/08 12:15:12;;;;;;;19.83;12.77;;;6.60;99.90;;;;;;5052429;28;20033;-72
2022/12/08 12:17:46;;;;;;;19.52;12.60;;;6.60;99.90;;;;;;5052194;28;20021;-69
2022/12/08 12:20:16;;;;;;;20.80;13.20;;;6.60;99.90;;;;;;5051115;28;20579;-69
2022/12/08 12:22:46;;;;;;;20.58;13.13;;;6.50;99.90;;;;;;5052656;28;20058;-69
2022/12/08 12:25:22;;;;;;;20.70;13.82;;;6.50;99.90;;;;;;5052369;28;20037;-69
2022/12/08 12:27:49;;;;;;;21.15;12.98;;;6.40;99.90;;;;;;5052596;28;20056;-68
2022/12/08 12:30:22;;;;;;;21.90;13.23;;;6.40;99.90;;;;;;5052229;28;20029;-69
2022/12/08 12:33:00;;;;;;;20.05;13.15;;;6.30;99.90;;;;;;5052531;28;20029;-70
2022/12/08 12:35:40;;;;;;;21.17;14.40;;;6.10;99.90;;;;;;5052285;28;20035;-69
2022/12/08 12:41:20;;;;;;;22.60;14.52;;;6.00;99.90;;;;;;5052172;28;20036;-70
2022/12/08 12:44:05;;;;;;;;;;;6.00;99.90;;;;;;5053357;28;20021;-70
2022/12/08 12:46:47;;;;;;;24.75;14.50;;;5.90;99.90;;;;;;5052437;28;19991;-70
2022/12/08 12:49:34;;;;;;;21.77;14.20;;;5.90;99.90;;;;;;5052153;28;20053;-70
2022/12/08 12:52:00;;;;;;;21.80;14.65;;;5.80;99.90;;;;;;5052167;28;20086;-70
2022/12/08 12:54:28;;;;;;;24.42;13.98;;;5.80;99.90;;;;;;5052094;28;20028;-69
2022/12/08 12:57:11;;;;;;;20.70;13.82;;;5.70;99.90;;;;;;5052216;28;20021;-70
2022/12/08 12:59:52;;;;;;;22.75;14.98;;;5.80;99.90;;;;;;5052340;28;20031;-70
2022/12/08 13:02:31;;;;;;;25.90;16.80;;;5.70;99.90;;;;;;5051641;28;20025;-69
2022/12/08 13:05:02;;;;;;;23.35;15.13;;;5.70;99.90;;;;;;5051666;28;20440;-69
2022/12/08 13:07:41;;;;;;;21.50;14.27;;;5.70;99.90;;;;;;5052041;28;20053;-70
2022/12/08 13:10:40;;;;;;;22.92;14.95;;;5.70;99.90;;;;;;5051589;28;20477;-69
2022/12/08 13:13:08;;;;;;;20.52;14.13;;;5.60;99.90;;;;;;5045752;28;20048;-71